createdAt,value
2019-03-03T00:00:48.846Z,42.90
2019-03-03T00:03:18.010Z,45.40
2019-03-03T00:05:48.214Z,46.25
2019-03-03T00:08:17.452Z,42.70
2019-03-03T00:10:52.630Z,43.30
2019-03-03T00:13:22.837Z,45.15
2019-03-03T00:15:51.983Z,47.50
2019-03-03T00:18:21.155Z,41.80
2019-03-03T00:21:10.101Z,42.50
2019-03-03T00:23:40.878Z,46.08
2019-03-03T00:26:10.010Z,42.10
2019-03-03T00:28:39.183Z,46.33
2019-03-03T00:31:08.337Z,44.13
2019-03-03T00:33:37.504Z,45.28
2019-03-03T00:36:06.666Z,44.48
2019-03-03T00:38:37.544Z,43.17
2019-03-03T00:41:24.804Z,42.38
2019-03-03T00:44:04.658Z,48.92
2019-03-03T00:46:50.631Z,44.60
2019-03-03T00:49:21.435Z,47.03
2019-03-03T00:51:52.240Z,47.08
2019-03-03T00:54:23.035Z,43.42
2019-03-03T00:56:53.888Z,43.83
2019-03-03T00:59:27.354Z,44.05
2019-03-03T01:01:58.148Z,48.28
2019-03-03T01:04:28.923Z,47.53
2019-03-03T01:06:59.720Z,44.85
2019-03-03T01:09:45.662Z,45.67
2019-03-03T01:12:22.431Z,43.85
2019-03-03T01:15:11.522Z,44.10
2019-03-03T01:17:42.309Z,44.77
2019-03-03T01:20:28.228Z,43.28
2019-03-03T01:23:10.642Z,45.20
2019-03-03T01:25:39.808Z,48.15
2019-03-03T01:28:08.945Z,44.83
2019-03-03T01:30:38.163Z,48.15
2019-03-03T01:33:07.306Z,50.00
2019-03-03T01:35:36.435Z,50.95
2019-03-03T01:38:05.590Z,49.48
2019-03-03T01:40:34.749Z,53.42
2019-03-03T01:43:03.964Z,53.60
2019-03-03T01:45:33.126Z,50.95
2019-03-03T01:48:02.260Z,52.33
2019-03-03T01:50:31.412Z,57.23
2019-03-03T01:53:00.662Z,57.05
2019-03-03T01:55:35.366Z,54.83
2019-03-03T01:58:04.512Z,52.53
2019-03-03T02:00:33.742Z,55.63
2019-03-03T02:03:02.907Z,56.60
2019-03-03T02:05:32.107Z,57.13
2019-03-03T02:08:01.323Z,55.23
2019-03-03T02:10:30.470Z,55.73
2019-03-03T02:12:59.691Z,55.95
2019-03-03T02:15:28.839Z,58.35
2019-03-03T02:17:58.028Z,53.20
2019-03-03T02:20:27.162Z,59.23
2019-03-03T02:22:56.300Z,56.88
2019-03-03T02:25:25.457Z,55.43
2019-03-03T02:27:54.593Z,54.35
2019-03-03T02:30:23.744Z,53.35
2019-03-03T02:32:52.951Z,58.70
2019-03-03T02:35:22.119Z,53.75
2019-03-03T02:37:51.255Z,53.35
2019-03-03T02:40:20.429Z,57.25
2019-03-03T02:42:49.625Z,56.85
2019-03-03T02:45:19.010Z,55.92
2019-03-03T02:47:48.250Z,57.38
2019-03-03T02:50:17.411Z,58.35
2019-03-03T02:52:46.639Z,58.50
2019-03-03T02:55:17.324Z,56.65
2019-03-03T02:57:46.469Z,58.98
2019-03-03T03:00:20.281Z,61.68
2019-03-03T03:02:50.991Z,59.27
2019-03-03T03:05:23.459Z,56.55
2019-03-03T03:08:03.258Z,61.00
2019-03-03T03:10:49.021Z,60.25
2019-03-03T03:13:19.800Z,56.08
2019-03-03T03:15:50.602Z,60.73
2019-03-03T03:18:27.147Z,59.42
2019-03-03T03:20:57.938Z,63.68
2019-03-03T03:23:45.141Z,55.95
2019-03-03T03:26:15.919Z,64.30
2019-03-03T03:28:58.654Z,60.60
2019-03-03T03:31:35.541Z,68.57
2019-03-03T03:34:07.477Z,61.08
2019-03-03T03:36:38.349Z,61.45
2019-03-03T03:39:15.091Z,63.48
2019-03-03T03:41:45.900Z,62.98
2019-03-03T03:44:34.814Z,63.70
2019-03-03T03:47:11.290Z,60.00
2019-03-03T03:49:42.088Z,62.73
2019-03-03T03:52:24.818Z,57.17
2019-03-03T03:55:04.800Z,62.13
2019-03-03T03:57:50.597Z,60.63
2019-03-03T04:00:37.898Z,65.47
2019-03-03T04:03:20.837Z,63.35
2019-03-03T04:05:51.723Z,65.57
2019-03-03T04:08:28.237Z,59.00
2019-03-03T04:10:59.019Z,58.80
2019-03-03T04:13:38.693Z,59.15
2019-03-03T04:16:09.475Z,61.35
2019-03-03T04:18:46.194Z,56.95
2019-03-03T04:21:33.386Z,59.55
2019-03-03T04:24:09.983Z,56.77
2019-03-03T04:26:40.821Z,58.92
2019-03-03T04:29:11.611Z,56.08
2019-03-03T04:31:45.552Z,52.17
2019-03-03T04:34:19.361Z,52.05
2019-03-03T04:36:59.234Z,49.08
2019-03-03T04:39:30.040Z,55.00
2019-03-03T04:42:09.792Z,51.10
2019-03-03T04:44:49.894Z,51.15
2019-03-03T04:47:29.594Z,49.73
2019-03-03T04:50:00.397Z,50.70
2019-03-03T04:52:34.334Z,49.88
2019-03-03T04:55:18.376Z,49.58
2019-03-03T04:58:05.331Z,50.93
2019-03-03T05:00:36.141Z,48.52
2019-03-03T05:03:09.831Z,48.25
2019-03-03T05:05:57.056Z,46.83
2019-03-03T05:08:36.896Z,46.55
2019-03-03T05:11:25.790Z,46.95
2019-03-03T05:13:56.591Z,45.38
2019-03-03T05:16:30.151Z,44.93
2019-03-03T05:19:03.639Z,45.27
2019-03-03T05:21:32.807Z,44.18
2019-03-03T05:24:02.018Z,39.78
2019-03-03T05:26:31.155Z,42.50
2019-03-03T05:29:00.324Z,42.30
2019-03-03T05:31:29.507Z,40.75
2019-03-03T05:33:58.701Z,39.08
2019-03-03T05:36:27.860Z,37.25
2019-03-03T05:38:57.007Z,37.05
2019-03-03T05:41:26.155Z,39.50
2019-03-03T05:43:55.299Z,34.10
2019-03-03T05:46:24.485Z,34.83
2019-03-03T05:48:53.626Z,31.95
2019-03-03T05:51:22.778Z,36.30
2019-03-03T05:53:51.943Z,36.50
2019-03-03T05:56:21.179Z,33.45
2019-03-03T05:58:50.316Z,33.05
2019-03-03T06:01:19.479Z,32.42
2019-03-03T06:03:48.641Z,33.05
2019-03-03T06:06:17.804Z,30.62
2019-03-03T06:08:47.007Z,30.30
2019-03-03T06:11:16.161Z,33.15
2019-03-03T06:13:45.303Z,30.12
2019-03-03T06:16:15.381Z,31.05
2019-03-03T06:18:44.608Z,27.30
2019-03-03T06:21:13.736Z,28.12
2019-03-03T06:23:42.894Z,27.10
2019-03-03T06:26:12.051Z,22.17
2019-03-03T06:28:41.193Z,24.35
2019-03-03T06:31:10.343Z,22.82
2019-03-03T06:33:39.496Z,21.68
2019-03-03T06:36:08.735Z,20.60
2019-03-03T06:38:37.969Z,23.90
2019-03-03T06:41:07.128Z,21.17
2019-03-03T06:43:38.455Z,19.35
2019-03-03T06:46:07.884Z,15.93
2019-03-03T06:48:37.118Z,18.15
2019-03-03T06:51:06.268Z,18.15
2019-03-03T06:53:35.431Z,18.17
2019-03-03T06:56:04.642Z,18.40
2019-03-03T06:58:33.882Z,17.98
2019-03-03T07:01:03.112Z,14.40
2019-03-03T07:03:32.247Z,18.30
2019-03-03T07:06:01.411Z,14.75
2019-03-03T07:08:31.208Z,12.70
2019-03-03T07:11:00.347Z,14.58
2019-03-03T07:13:33.095Z,14.93
2019-03-03T07:16:02.222Z,13.28
2019-03-03T07:18:31.387Z,15.08
2019-03-03T07:21:00.531Z,14.23
2019-03-03T07:23:30.756Z,12.95
2019-03-03T07:25:59.919Z,16.57
2019-03-03T07:28:29.680Z,11.15
2019-03-03T07:30:58.911Z,11.38
2019-03-03T07:33:29.739Z,11.97
2019-03-03T07:35:58.947Z,12.88
2019-03-03T07:38:28.151Z,12.35
2019-03-03T07:40:57.306Z,14.15
2019-03-03T07:43:28.871Z,13.00
2019-03-03T07:45:59.094Z,12.98
2019-03-03T07:48:28.239Z,18.45
2019-03-03T07:50:57.395Z,10.15
2019-03-03T07:53:26.553Z,15.58
2019-03-03T07:55:55.777Z,12.58
2019-03-03T07:58:24.948Z,12.98
2019-03-03T08:00:54.099Z,12.82
2019-03-03T08:03:23.248Z,9.93
2019-03-03T08:05:52.467Z,10.82
2019-03-03T08:08:21.621Z,16.35
2019-03-03T08:10:51.524Z,11.48
2019-03-03T08:13:20.698Z,11.33
2019-03-03T08:15:50.906Z,10.60
2019-03-03T08:18:20.059Z,12.15
2019-03-03T08:20:49.214Z,12.25
2019-03-03T08:23:18.375Z,14.23
2019-03-03T08:25:47.502Z,10.08
2019-03-03T08:28:16.655Z,13.78
2019-03-03T08:30:45.809Z,11.80
2019-03-03T08:33:15.002Z,12.63
2019-03-03T08:35:44.179Z,13.32
2019-03-03T08:38:13.396Z,12.03
2019-03-03T08:40:42.699Z,15.83
2019-03-03T08:43:20.839Z,14.33
2019-03-03T08:45:51.710Z,12.55
2019-03-03T08:48:25.363Z,12.80
2019-03-03T08:51:14.458Z,12.57
2019-03-03T08:54:03.255Z,12.10
2019-03-03T08:56:35.157Z,14.00
2019-03-03T08:59:06.264Z,11.55
2019-03-03T09:01:40.399Z,12.85
2019-03-03T09:04:19.902Z,12.00
2019-03-03T09:07:05.840Z,12.15
2019-03-03T09:09:36.638Z,11.50
2019-03-03T09:12:07.447Z,12.98
2019-03-03T09:14:56.576Z,13.68
2019-03-03T09:17:27.355Z,13.18
2019-03-03T09:20:10.432Z,14.65
2019-03-03T09:22:49.987Z,12.73
2019-03-03T09:25:21.851Z,12.88
2019-03-03T09:27:52.959Z,13.40
2019-03-03T09:30:23.759Z,13.95
2019-03-03T09:33:10.673Z,11.88
2019-03-03T09:35:41.494Z,13.70
2019-03-03T09:38:24.455Z,13.95
2019-03-03T09:44:00.176Z,11.22
2019-03-03T09:46:30.958Z,13.25
2019-03-03T09:49:20.219Z,14.07
2019-03-03T09:51:58.019Z,14.53
2019-03-03T09:54:42.228Z,14.83
2019-03-03T09:57:24.487Z,14.23
2019-03-03T10:00:00.986Z,12.10
2019-03-03T10:02:35.291Z,12.03
2019-03-03T10:05:10.387Z,16.75
2019-03-03T10:07:47.362Z,15.00
2019-03-03T10:10:21.894Z,13.20
2019-03-03T10:13:05.538Z,11.30
2019-03-03T10:15:36.541Z,14.38
2019-03-03T10:18:23.575Z,14.90
2019-03-03T10:21:00.447Z,14.30
2019-03-03T10:23:37.174Z,12.45
2019-03-03T10:26:16.789Z,15.00
2019-03-03T10:29:05.061Z,13.18
2019-03-03T10:31:50.839Z,15.40
2019-03-03T10:34:27.559Z,13.30
2019-03-03T10:37:12.036Z,10.18
2019-03-03T10:39:42.870Z,13.40
2019-03-03T10:42:27.838Z,11.35
2019-03-03T10:45:04.059Z,14.55
2019-03-03T10:47:34.953Z,14.35
2019-03-03T10:50:23.744Z,10.80
2019-03-03T10:52:54.662Z,12.33
2019-03-03T10:55:31.151Z,15.70
2019-03-03T10:58:18.484Z,11.75
2019-03-03T11:01:05.713Z,11.45
2019-03-03T11:03:52.922Z,13.00
2019-03-03T11:06:23.730Z,10.98
2019-03-03T11:09:12.716Z,11.70
2019-03-03T11:11:47.963Z,11.45
2019-03-03T11:14:21.786Z,14.98
2019-03-03T11:16:52.553Z,11.90
2019-03-03T11:19:23.407Z,11.22
2019-03-03T11:21:54.236Z,14.45
2019-03-03T11:24:25.191Z,13.72
2019-03-03T11:26:55.987Z,13.20
2019-03-03T11:29:26.863Z,11.50
2019-03-03T11:32:12.693Z,10.98
2019-03-03T11:34:46.575Z,15.70
2019-03-03T11:37:17.454Z,11.30
2019-03-03T11:39:54.791Z,10.75
2019-03-03T11:42:25.920Z,11.85
2019-03-03T11:44:56.743Z,11.97
2019-03-03T11:47:35.385Z,10.95
2019-03-03T11:50:27.294Z,12.85
2019-03-03T11:53:16.471Z,13.13
2019-03-03T11:55:50.368Z,13.18
2019-03-03T11:58:21.408Z,11.90
2019-03-03T12:01:09.106Z,11.83
2019-03-03T12:03:43.170Z,12.37
2019-03-03T12:06:13.975Z,12.88
2019-03-03T12:09:12.544Z,11.83
2019-03-03T12:11:52.385Z,12.37
2019-03-03T12:14:25.952Z,15.72
2019-03-03T12:16:59.452Z,16.23
2019-03-03T12:19:42.231Z,15.10
2019-03-03T12:22:13.017Z,12.33
2019-03-03T12:24:58.915Z,15.30
2019-03-03T12:27:41.738Z,13.25
2019-03-03T12:30:12.601Z,13.98
2019-03-03T12:32:49.135Z,13.65
2019-03-03T12:35:22.963Z,13.65
2019-03-03T12:38:02.436Z,14.75
2019-03-03T12:40:36.181Z,12.60
2019-03-03T12:43:09.405Z,16.82
2019-03-03T12:45:58.467Z,11.35
2019-03-03T12:48:47.347Z,14.18
2019-03-03T12:51:34.391Z,14.33
2019-03-03T12:54:21.761Z,13.00
2019-03-03T12:56:52.542Z,15.70
2019-03-03T12:59:29.846Z,13.45
2019-03-03T13:02:16.695Z,15.20
2019-03-03T13:04:47.518Z,11.73
2019-03-03T13:07:18.445Z,17.52
2019-03-03T13:10:04.291Z,15.23
2019-03-03T13:12:51.135Z,14.18
2019-03-03T13:15:30.927Z,14.95
2019-03-03T13:18:04.366Z,15.40
2019-03-03T13:20:38.323Z,16.52
2019-03-03T13:23:15.747Z,12.90
2019-03-03T13:26:00.071Z,16.02
2019-03-03T13:28:31.044Z,12.57
2019-03-03T13:31:18.358Z,11.78
2019-03-03T13:33:55.355Z,13.83
2019-03-03T13:36:32.471Z,13.95
2019-03-03T13:39:12.203Z,14.95
2019-03-03T13:41:45.723Z,16.32
2019-03-03T13:44:14.887Z,15.28
2019-03-03T13:46:44.360Z,14.68
2019-03-03T13:49:15.138Z,13.43
2019-03-03T13:51:44.344Z,12.20
2019-03-03T13:54:13.679Z,16.82
2019-03-03T13:56:44.483Z,13.35
2019-03-03T13:59:13.688Z,12.47
2019-03-03T14:01:43.563Z,12.30
2019-03-03T14:04:12.916Z,17.60
2019-03-03T14:06:42.172Z,12.78
2019-03-03T14:09:12.732Z,11.38
2019-03-03T14:11:42.454Z,12.25
2019-03-03T14:14:14.728Z,15.68
2019-03-03T14:16:45.020Z,15.48
2019-03-03T14:19:15.189Z,12.10
2019-03-03T14:21:44.676Z,12.35
2019-03-03T14:24:14.020Z,12.58
2019-03-03T14:26:43.447Z,14.07
2019-03-03T14:29:12.663Z,12.73
2019-03-03T14:31:41.918Z,10.53
2019-03-03T14:34:11.098Z,10.70
2019-03-03T14:36:40.562Z,11.12
2019-03-03T14:39:09.783Z,10.98
2019-03-03T14:41:40.494Z,10.03
2019-03-03T14:44:09.749Z,12.07
2019-03-03T14:46:39.012Z,13.00
2019-03-03T14:49:08.240Z,12.05
2019-03-03T14:51:37.434Z,14.87
2019-03-03T14:54:06.576Z,16.17
2019-03-03T14:56:35.707Z,13.15
2019-03-03T14:59:04.851Z,17.05
2019-03-03T15:01:33.993Z,12.65
2019-03-03T15:04:03.157Z,14.25
2019-03-03T15:06:32.588Z,13.40
2019-03-03T15:09:01.823Z,15.28
2019-03-03T15:11:32.582Z,17.45
2019-03-03T15:14:01.774Z,13.80
2019-03-03T15:16:31.007Z,17.90
2019-03-03T15:19:01.799Z,16.35
2019-03-03T15:21:30.977Z,17.12
2019-03-03T15:24:00.177Z,15.90
2019-03-03T15:26:29.325Z,15.98
2019-03-03T15:28:58.469Z,15.90
2019-03-03T15:31:37.319Z,17.00
2019-03-03T15:33:58.520Z,13.40
2019-03-03T15:36:27.720Z,15.55
2019-03-03T15:38:56.903Z,15.08
2019-03-03T15:41:26.149Z,16.80
2019-03-03T15:43:55.299Z,15.50
2019-03-03T15:46:26.159Z,13.68
2019-03-03T15:48:55.308Z,17.62
2019-03-03T15:51:24.458Z,14.80
2019-03-03T15:53:53.615Z,14.33
2019-03-03T15:56:22.800Z,13.20
2019-03-03T15:58:55.632Z,18.02
2019-03-03T16:01:22.842Z,16.05
2019-03-03T16:03:51.985Z,17.05
2019-03-03T16:06:21.202Z,14.35
2019-03-03T16:08:50.674Z,20.05
2019-03-03T16:11:22.833Z,18.45
2019-03-03T16:13:51.976Z,16.48
2019-03-03T16:16:22.189Z,16.90
2019-03-03T16:18:54.005Z,17.17
2019-03-03T16:21:23.218Z,17.67
2019-03-03T16:23:52.386Z,23.27
2019-03-03T16:26:22.465Z,22.05
2019-03-03T16:28:51.632Z,16.37
2019-03-03T16:31:20.850Z,20.52
2019-03-03T16:33:50.380Z,16.70
2019-03-03T16:36:19.543Z,22.65
2019-03-03T16:38:48.755Z,18.65
2019-03-03T16:41:17.995Z,19.48
2019-03-03T16:43:47.243Z,16.85
2019-03-03T16:46:16.399Z,21.45
2019-03-03T16:48:45.630Z,19.17
2019-03-03T16:51:14.830Z,22.30
2019-03-03T16:53:44.225Z,21.80
2019-03-03T16:56:16.170Z,16.93
2019-03-03T16:58:48.340Z,18.80
2019-03-03T17:01:19.171Z,25.02
2019-03-03T17:03:48.331Z,21.02
2019-03-03T17:06:17.475Z,21.55
2019-03-03T17:08:46.728Z,23.80
2019-03-03T17:11:17.135Z,20.37
2019-03-03T17:13:46.419Z,20.72
2019-03-03T17:16:16.711Z,21.50
2019-03-03T17:18:45.944Z,24.50
2019-03-03T17:21:15.288Z,21.05
2019-03-03T17:23:44.573Z,22.82
2019-03-03T17:26:13.931Z,19.98
2019-03-03T17:28:44.750Z,20.57
2019-03-03T17:31:14.144Z,19.60
2019-03-03T17:33:43.336Z,20.15
2019-03-03T17:36:12.674Z,23.25
2019-03-03T17:38:41.925Z,24.27
2019-03-03T17:41:11.181Z,20.15
2019-03-03T17:43:40.439Z,24.60
2019-03-03T17:46:09.731Z,17.77
2019-03-03T17:48:39.099Z,19.75
2019-03-03T17:51:08.256Z,20.35
2019-03-03T17:53:37.641Z,21.68
2019-03-03T17:56:06.897Z,19.73
2019-03-03T17:58:36.135Z,20.68
2019-03-03T18:01:06.313Z,17.62
2019-03-03T18:03:35.538Z,20.02
2019-03-03T18:06:04.772Z,21.42
2019-03-03T18:08:33.957Z,16.93
2019-03-03T18:11:03.281Z,21.25
2019-03-03T18:13:32.564Z,18.55
2019-03-03T18:16:01.778Z,15.90
2019-03-03T18:18:32.656Z,20.48
2019-03-03T18:21:01.843Z,15.78
2019-03-03T18:23:31.680Z,15.55
2019-03-03T18:26:00.954Z,16.82
2019-03-03T18:28:30.243Z,20.72
2019-03-03T18:30:59.428Z,18.32
2019-03-03T18:33:28.672Z,18.48
2019-03-03T18:35:57.851Z,14.90
2019-03-03T18:38:27.065Z,23.55
2019-03-03T18:40:56.221Z,14.87
2019-03-03T18:43:25.379Z,21.17
2019-03-03T18:45:54.551Z,18.55
2019-03-03T18:48:23.724Z,17.12
2019-03-03T18:50:52.915Z,18.98
2019-03-03T18:53:22.053Z,18.60
2019-03-03T18:55:55.044Z,18.35
2019-03-03T18:58:24.282Z,17.37
2019-03-03T19:00:53.629Z,20.90
2019-03-03T19:03:22.881Z,18.50
2019-03-03T19:05:55.702Z,26.23
2019-03-03T19:08:23.573Z,16.65
2019-03-03T19:10:53.102Z,14.63
2019-03-03T19:13:22.312Z,18.90
2019-03-03T19:15:51.616Z,16.82
2019-03-03T19:18:21.058Z,15.88
2019-03-03T19:20:50.477Z,17.77
2019-03-03T19:23:19.948Z,15.90
2019-03-03T19:25:49.258Z,19.00
2019-03-03T19:28:18.700Z,14.87
2019-03-03T19:30:47.966Z,12.25
2019-03-03T19:33:27.533Z,15.70
2019-03-03T19:35:56.783Z,14.00
2019-03-03T19:38:32.391Z,14.30
2019-03-03T19:41:01.780Z,16.85
2019-03-03T19:43:31.083Z,15.25
2019-03-03T19:46:02.893Z,11.90
2019-03-03T19:48:35.897Z,17.15
2019-03-03T19:51:06.024Z,12.25
2019-03-03T19:53:35.320Z,15.23
2019-03-03T19:56:04.570Z,13.85
2019-03-03T19:58:34.002Z,14.73
2019-03-03T20:01:04.015Z,11.10
2019-03-03T20:03:33.389Z,17.73
2019-03-03T20:06:02.693Z,12.45
2019-03-03T20:08:32.743Z,16.80
2019-03-03T20:11:02.135Z,14.23
2019-03-03T20:13:31.476Z,13.68
2019-03-03T20:16:00.739Z,13.62
2019-03-03T20:18:30.831Z,11.97
2019-03-03T20:21:00.487Z,14.85
2019-03-03T20:23:29.626Z,17.23
2019-03-03T20:25:58.843Z,13.13
2019-03-03T20:28:28.153Z,11.38
2019-03-03T20:30:58.060Z,11.75
2019-03-03T20:33:27.384Z,15.85
2019-03-03T20:35:56.803Z,12.18
2019-03-03T20:38:26.047Z,12.37
2019-03-03T20:40:55.558Z,11.63
2019-03-03T20:43:24.896Z,16.37
2019-03-03T20:45:54.151Z,15.68
2019-03-03T20:48:24.916Z,13.13
2019-03-03T20:50:54.155Z,10.72
2019-03-03T20:53:23.513Z,12.25
2019-03-03T20:55:52.882Z,10.48
2019-03-03T20:58:22.975Z,12.40
2019-03-03T21:00:52.939Z,12.98
2019-03-03T21:03:23.967Z,13.35
2019-03-03T21:05:58.074Z,10.48
2019-03-03T21:08:27.289Z,15.13
2019-03-03T21:10:58.107Z,11.20
2019-03-03T21:13:28.512Z,13.38
2019-03-03T21:15:58.078Z,11.18
2019-03-03T21:18:28.483Z,12.10
2019-03-03T21:20:57.668Z,9.68
2019-03-03T21:23:26.855Z,10.93
2019-03-03T21:25:57.750Z,14.70
2019-03-03T21:28:28.964Z,15.75
2019-03-03T21:30:58.219Z,12.18
2019-03-03T21:33:27.973Z,12.65
2019-03-03T21:35:57.655Z,13.00
2019-03-03T21:38:26.908Z,12.07
2019-03-03T21:40:58.827Z,12.53
2019-03-03T21:43:31.075Z,11.70
2019-03-03T21:46:00.973Z,9.93
2019-03-03T21:48:30.299Z,12.05
2019-03-03T21:50:59.505Z,10.63
2019-03-03T21:53:28.667Z,14.53
2019-03-03T21:56:01.670Z,10.53
2019-03-03T21:58:31.003Z,11.05
2019-03-03T22:01:00.201Z,10.28
2019-03-03T22:03:29.999Z,12.28
2019-03-03T22:05:59.307Z,13.78
2019-03-03T22:08:28.448Z,14.38
2019-03-03T22:10:57.667Z,10.53
2019-03-03T22:13:27.066Z,11.90
2019-03-03T22:15:56.212Z,10.23
2019-03-03T22:18:28.094Z,12.45
2019-03-03T22:20:57.496Z,12.60
2019-03-03T22:23:27.051Z,12.60
2019-03-03T22:25:59.163Z,10.75
2019-03-03T22:28:28.315Z,13.45
2019-03-03T22:30:57.508Z,12.15
2019-03-03T22:33:27.878Z,11.12
2019-03-03T22:35:59.467Z,12.70
2019-03-03T22:38:27.891Z,12.45
2019-03-03T22:40:57.145Z,11.93
2019-03-03T22:43:28.037Z,12.35
2019-03-03T22:45:58.699Z,13.48
2019-03-03T22:48:27.877Z,16.35
2019-03-03T22:50:57.026Z,13.22
2019-03-03T22:53:26.195Z,13.58
2019-03-03T22:55:55.407Z,11.68
2019-03-03T22:58:24.579Z,14.60
2019-03-03T23:01:04.590Z,11.90
2019-03-03T23:03:37.067Z,13.60
2019-03-03T23:06:18.200Z,13.05
2019-03-03T23:09:11.966Z,14.30
2019-03-03T23:12:11.678Z,12.73
2019-03-03T23:15:03.631Z,12.68
2019-03-03T23:17:48.062Z,12.58
2019-03-03T23:20:29.320Z,13.25
2019-03-03T23:23:07.325Z,11.48
2019-03-03T23:25:47.920Z,9.78
2019-03-03T23:28:17.231Z,13.32
2019-03-03T23:30:47.614Z,13.85
2019-03-03T23:33:17.526Z,13.38
2019-03-03T23:35:46.830Z,11.15
2019-03-03T23:38:15.999Z,13.00
2019-03-03T23:40:45.165Z,11.88
2019-03-03T23:43:14.305Z,13.58
2019-03-03T23:45:43.465Z,14.63
2019-03-03T23:48:12.616Z,13.13
2019-03-03T23:50:41.857Z,13.30
2019-03-03T23:53:10.991Z,11.63
2019-03-03T23:55:40.184Z,12.15
2019-03-03T23:58:09.377Z,13.15
